sensor_id;sensor_type;location;lat;lon;timestamp;P1;durP1;ratioP1;P2;durP2;ratioP2
76296;SDS011;65104;52.994;6.552;2022-11-15T00:00:15;18.98;;;11.32;;
76296;SDS011;65104;52.994;6.552;2022-11-15T00:02:41;20.42;;;10.93;;
76296;SDS011;65104;52.994;6.552;2022-11-15T00:05:07;21.50;;;12.57;;
76296;SDS011;65104;52.994;6.552;2022-11-15T00:07:33;22.73;;;12.85;;
76296;SDS011;65104;52.994;6.552;2022-11-15T00:09:59;18.52;;;11.38;;
76296;SDS011;65104;52.994;6.552;2022-11-15T00:12:26;23.83;;;12.07;;
76296;SDS011;65104;52.994;6.552;2022-11-15T00:14:53;20.35;;;12.35;;
76296;SDS011;65104;52.994;6.552;2022-11-15T00:17:19;23.27;;;13.10;;
76296;SDS011;65104;52.994;6.552;2022-11-15T00:19:45;24.35;;;13.02;;
76296;SDS011;65104;52.994;6.552;2022-11-15T00:22:14;24.55;;;13.63;;
76296;SDS011;65104;52.994;6.552;2022-11-15T00:24:40;21.35;;;12.57;;
76296;SDS011;65104;52.994;6.552;2022-11-15T00:27:06;22.98;;;13.35;;
76296;SDS011;65104;52.994;6.552;2022-11-15T00:29:32;21.00;;;11.90;;
76296;SDS011;65104;52.994;6.552;2022-11-15T00:31:58;19.65;;;11.65;;
76296;SDS011;65104;52.994;6.552;2022-11-15T00:34:24;23.75;;;12.43;;
76296;SDS011;65104;52.994;6.552;2022-11-15T00:36:50;21.67;;;12.32;;
76296;SDS011;65104;52.994;6.552;2022-11-15T00:39:16;19.65;;;11.10;;
76296;SDS011;65104;52.994;6.552;2022-11-15T00:41:42;19.75;;;12.45;;
76296;SDS011;65104;52.994;6.552;2022-11-15T00:44:08;19.70;;;11.50;;
76296;SDS011;65104;52.994;6.552;2022-11-15T00:46:34;20.88;;;11.90;;
76296;SDS011;65104;52.994;6.552;2022-11-15T00:49:00;19.65;;;10.40;;
76296;SDS011;65104;52.994;6.552;2022-11-15T00:51:26;21.98;;;11.38;;
76296;SDS011;65104;52.994;6.552;2022-11-15T00:53:52;20.08;;;11.95;;
76296;SDS011;65104;52.994;6.552;2022-11-15T00:56:18;22.00;;;12.07;;
76296;SDS011;65104;52.994;6.552;2022-11-15T00:58:44;20.38;;;11.10;;
76296;SDS011;65104;52.994;6.552;2022-11-15T01:01:12;24.40;;;12.93;;
76296;SDS011;65104;52.994;6.552;2022-11-15T01:03:40;19.67;;;12.07;;
76296;SDS011;65104;52.994;6.552;2022-11-15T01:06:07;20.20;;;11.77;;
76296;SDS011;65104;52.994;6.552;2022-11-15T01:08:33;20.92;;;11.88;;
76296;SDS011;65104;52.994;6.552;2022-11-15T01:11:04;20.73;;;12.63;;
76296;SDS011;65104;52.994;6.552;2022-11-15T01:13:37;23.17;;;12.48;;
76296;SDS011;65104;52.994;6.552;2022-11-15T01:16:11;20.17;;;12.20;;
76296;SDS011;65104;52.994;6.552;2022-11-15T01:18:39;23.75;;;12.68;;
76296;SDS011;65104;52.994;6.552;2022-11-15T01:21:10;23.67;;;12.38;;
76296;SDS011;65104;52.994;6.552;2022-11-15T01:23:41;24.20;;;13.88;;
76296;SDS011;65104;52.994;6.552;2022-11-15T01:26:09;20.33;;;11.80;;
76296;SDS011;65104;52.994;6.552;2022-11-15T01:28:37;21.77;;;11.40;;
76296;SDS011;65104;52.994;6.552;2022-11-15T01:31:06;22.73;;;10.90;;
76296;SDS011;65104;52.994;6.552;2022-11-15T01:33:35;19.65;;;11.93;;
76296;SDS011;65104;52.994;6.552;2022-11-15T01:36:04;23.17;;;12.23;;
76296;SDS011;65104;52.994;6.552;2022-11-15T01:38:36;21.83;;;11.50;;
76296;SDS011;65104;52.994;6.552;2022-11-15T01:41:02;20.02;;;12.00;;
76296;SDS011;65104;52.994;6.552;2022-11-15T01:43:34;25.52;;;12.45;;
76296;SDS011;65104;52.994;6.552;2022-11-15T01:46:09;25.00;;;13.27;;
76296;SDS011;65104;52.994;6.552;2022-11-15T01:48:38;22.70;;;11.48;;
76296;SDS011;65104;52.994;6.552;2022-11-15T01:51:09;24.88;;;13.40;;
76296;SDS011;65104;52.994;6.552;2022-11-15T01:53:43;24.63;;;12.60;;
76296;SDS011;65104;52.994;6.552;2022-11-15T01:56:13;24.33;;;12.70;;
76296;SDS011;65104;52.994;6.552;2022-11-15T01:58:48;24.02;;;11.95;;
76296;SDS011;65104;52.994;6.552;2022-11-15T02:01:16;26.55;;;12.45;;
76296;SDS011;65104;52.994;6.552;2022-11-15T02:03:45;24.27;;;11.73;;
76296;SDS011;65104;52.994;6.552;2022-11-15T02:06:18;25.05;;;12.48;;
76296;SDS011;65104;52.994;6.552;2022-11-15T02:08:45;25.85;;;12.27;;
76296;SDS011;65104;52.994;6.552;2022-11-15T02:11:11;21.40;;;11.43;;
76296;SDS011;65104;52.994;6.552;2022-11-15T02:13:37;24.02;;;11.45;;
76296;SDS011;65104;52.994;6.552;2022-11-15T02:19:02;27.83;;;13.77;;
76296;SDS011;65104;52.994;6.552;2022-11-15T02:30:35;25.20;;;12.02;;
76296;SDS011;65104;52.994;6.552;2022-11-15T02:39:15;23.75;;;12.23;;
76296;SDS011;65104;52.994;6.552;2022-11-15T02:42:21;22.80;;;11.32;;
76296;SDS011;65104;52.994;6.552;2022-11-15T02:45:31;23.42;;;11.40;;
76296;SDS011;65104;52.994;6.552;2022-11-15T02:48:02;22.30;;;11.32;;
76296;SDS011;65104;52.994;6.552;2022-11-15T02:50:31;25.90;;;12.20;;
76296;SDS011;65104;52.994;6.552;2022-11-15T02:52:58;25.38;;;12.65;;
76296;SDS011;65104;52.994;6.552;2022-11-15T02:55:34;21.42;;;11.65;;
76296;SDS011;65104;52.994;6.552;2022-11-15T03:09:27;22.65;;;12.07;;
76296;SDS011;65104;52.994;6.552;2022-11-15T03:18:07;23.42;;;10.55;;
76296;SDS011;65104;52.994;6.552;2022-11-15T03:20:39;26.77;;;12.02;;
76296;SDS011;65104;52.994;6.552;2022-11-15T03:23:06;26.70;;;12.07;;
76296;SDS011;65104;52.994;6.552;2022-11-15T03:25:36;23.65;;;12.45;;
76296;SDS011;65104;52.994;6.552;2022-11-15T03:28:05;28.52;;;13.38;;
76296;SDS011;65104;52.994;6.552;2022-11-15T03:30:34;29.13;;;12.75;;
76296;SDS011;65104;52.994;6.552;2022-11-15T03:33:03;35.63;;;13.30;;
76296;SDS011;65104;52.994;6.552;2022-11-15T03:35:32;27.70;;;12.75;;
76296;SDS011;65104;52.994;6.552;2022-11-15T03:41:01;29.58;;;13.27;;
76296;SDS011;65104;52.994;6.552;2022-11-15T03:46:24;36.13;;;15.35;;
76296;SDS011;65104;52.994;6.552;2022-11-15T03:48:54;26.40;;;12.65;;
76296;SDS011;65104;52.994;6.552;2022-11-15T03:51:44;31.98;;;12.93;;
76296;SDS011;65104;52.994;6.552;2022-11-15T03:54:11;32.08;;;13.43;;
76296;SDS011;65104;52.994;6.552;2022-11-15T03:56:38;34.97;;;14.27;;
76296;SDS011;65104;52.994;6.552;2022-11-15T03:59:04;32.53;;;14.80;;
76296;SDS011;65104;52.994;6.552;2022-11-15T04:01:30;31.83;;;14.98;;
76296;SDS011;65104;52.994;6.552;2022-11-15T04:03:56;38.70;;;14.52;;
76296;SDS011;65104;52.994;6.552;2022-11-15T04:06:22;39.78;;;16.40;;
76296;SDS011;65104;52.994;6.552;2022-11-15T04:08:48;40.15;;;15.95;;
76296;SDS011;65104;52.994;6.552;2022-11-15T04:11:13;40.85;;;15.93;;
76296;SDS011;65104;52.994;6.552;2022-11-15T04:13:39;35.17;;;15.50;;
76296;SDS011;65104;52.994;6.552;2022-11-15T04:16:05;33.40;;;15.45;;
76296;SDS011;65104;52.994;6.552;2022-11-15T04:18:31;40.25;;;15.52;;
76296;SDS011;65104;52.994;6.552;2022-11-15T04:20:57;32.33;;;15.80;;
76296;SDS011;65104;52.994;6.552;2022-11-15T04:23:41;40.40;;;16.15;;
76296;SDS011;65104;52.994;6.552;2022-11-15T04:26:25;33.17;;;16.13;;
76296;SDS011;65104;52.994;6.552;2022-11-15T04:28:51;40.70;;;16.77;;
76296;SDS011;65104;52.994;6.552;2022-11-15T04:31:35;41.15;;;16.92;;
76296;SDS011;65104;52.994;6.552;2022-11-15T04:34:01;40.70;;;16.88;;
76296;SDS011;65104;52.994;6.552;2022-11-15T04:36:27;42.92;;;17.73;;
76296;SDS011;65104;52.994;6.552;2022-11-15T04:39:11;43.92;;;17.20;;
76296;SDS011;65104;52.994;6.552;2022-11-15T04:41:37;41.45;;;18.13;;
76296;SDS011;65104;52.994;6.552;2022-11-15T04:44:03;37.95;;;17.45;;
76296;SDS011;65104;52.994;6.552;2022-11-15T04:46:29;34.10;;;16.30;;
76296;SDS011;65104;52.994;6.552;2022-11-15T04:48:54;41.05;;;18.83;;
76296;SDS011;65104;52.994;6.552;2022-11-15T04:51:20;47.38;;;19.73;;
76296;SDS011;65104;52.994;6.552;2022-11-15T04:53:46;50.58;;;20.35;;
76296;SDS011;65104;52.994;6.552;2022-11-15T04:56:12;45.45;;;18.98;;
76296;SDS011;65104;52.994;6.552;2022-11-15T04:58:38;43.22;;;18.77;;
76296;SDS011;65104;52.994;6.552;2022-11-15T05:01:12;49.53;;;19.25;;
76296;SDS011;65104;52.994;6.552;2022-11-15T05:03:40;45.03;;;19.73;;
76296;SDS011;65104;52.994;6.552;2022-11-15T05:06:25;45.97;;;18.08;;
76296;SDS011;65104;52.994;6.552;2022-11-15T05:08:51;55.53;;;21.10;;
76296;SDS011;65104;52.994;6.552;2022-11-15T05:11:17;49.95;;;20.17;;
76296;SDS011;65104;52.994;6.552;2022-11-15T05:13:43;49.13;;;20.30;;
76296;SDS011;65104;52.994;6.552;2022-11-15T05:16:09;46.83;;;19.95;;
76296;SDS011;65104;52.994;6.552;2022-11-15T05:18:35;56.50;;;23.15;;
76296;SDS011;65104;52.994;6.552;2022-11-15T05:21:09;52.50;;;21.42;;
76296;SDS011;65104;52.994;6.552;2022-11-15T05:23:37;46.25;;;21.33;;
76296;SDS011;65104;52.994;6.552;2022-11-15T05:26:05;51.33;;;20.60;;
76296;SDS011;65104;52.994;6.552;2022-11-15T05:28:32;52.38;;;22.05;;
76296;SDS011;65104;52.994;6.552;2022-11-15T05:31:15;58.00;;;21.90;;
76296;SDS011;65104;52.994;6.552;2022-11-15T05:33:42;50.90;;;20.48;;
76296;SDS011;65104;52.994;6.552;2022-11-15T05:36:12;53.72;;;23.55;;
76296;SDS011;65104;52.994;6.552;2022-11-15T05:38:57;55.15;;;21.98;;
76296;SDS011;65104;52.994;6.552;2022-11-15T05:41:27;54.90;;;23.63;;
76296;SDS011;65104;52.994;6.552;2022-11-15T05:43:57;56.00;;;22.80;;
76296;SDS011;65104;52.994;6.552;2022-11-15T05:46:25;52.70;;;21.90;;
76296;SDS011;65104;52.994;6.552;2022-11-15T05:48:51;52.00;;;22.67;;
76296;SDS011;65104;52.994;6.552;2022-11-15T05:51:18;48.60;;;21.23;;
76296;SDS011;65104;52.994;6.552;2022-11-15T05:53:47;57.05;;;22.83;;
76296;SDS011;65104;52.994;6.552;2022-11-15T05:56:14;54.53;;;21.90;;
76296;SDS011;65104;52.994;6.552;2022-11-15T05:58:40;43.65;;;21.92;;
76296;SDS011;65104;52.994;6.552;2022-11-15T06:01:07;52.80;;;21.42;;
76296;SDS011;65104;52.994;6.552;2022-11-15T06:03:33;47.45;;;21.42;;
76296;SDS011;65104;52.994;6.552;2022-11-15T06:05:59;47.60;;;21.80;;
76296;SDS011;65104;52.994;6.552;2022-11-15T06:08:25;58.40;;;22.77;;
76296;SDS011;65104;52.994;6.552;2022-11-15T06:10:51;56.33;;;22.35;;
76296;SDS011;65104;52.994;6.552;2022-11-15T06:13:17;51.55;;;22.30;;
76296;SDS011;65104;52.994;6.552;2022-11-15T06:15:43;47.50;;;22.35;;
76296;SDS011;65104;52.994;6.552;2022-11-15T06:18:09;58.55;;;23.73;;
76296;SDS011;65104;52.994;6.552;2022-11-15T06:20:35;48.78;;;21.27;;
76296;SDS011;65104;52.994;6.552;2022-11-15T06:23:02;49.95;;;22.17;;
76296;SDS011;65104;52.994;6.552;2022-11-15T06:25:29;50.45;;;21.00;;
76296;SDS011;65104;52.994;6.552;2022-11-15T06:27:57;55.40;;;23.77;;
76296;SDS011;65104;52.994;6.552;2022-11-15T06:30:25;49.25;;;21.30;;
76296;SDS011;65104;52.994;6.552;2022-11-15T06:32:52;50.53;;;23.58;;
76296;SDS011;65104;52.994;6.552;2022-11-15T06:35:24;43.35;;;19.80;;
76296;SDS011;65104;52.994;6.552;2022-11-15T06:37:50;53.30;;;21.38;;
76296;SDS011;65104;52.994;6.552;2022-11-15T06:40:16;39.75;;;19.92;;
76296;SDS011;65104;52.994;6.552;2022-11-15T06:42:42;40.83;;;20.00;;
76296;SDS011;65104;52.994;6.552;2022-11-15T06:45:07;44.70;;;20.90;;
76296;SDS011;65104;52.994;6.552;2022-11-15T06:47:33;47.47;;;19.83;;
76296;SDS011;65104;52.994;6.552;2022-11-15T06:49:59;49.03;;;20.52;;
76296;SDS011;65104;52.994;6.552;2022-11-15T06:52:25;49.03;;;22.88;;
76296;SDS011;65104;52.994;6.552;2022-11-15T06:54:51;45.90;;;21.73;;
76296;SDS011;65104;52.994;6.552;2022-11-15T06:57:17;40.85;;;19.23;;
76296;SDS011;65104;52.994;6.552;2022-11-15T06:59:43;45.22;;;19.80;;
76296;SDS011;65104;52.994;6.552;2022-11-15T07:02:13;47.25;;;19.67;;
76296;SDS011;65104;52.994;6.552;2022-11-15T07:04:39;40.45;;;20.08;;
76296;SDS011;65104;52.994;6.552;2022-11-15T07:07:05;44.60;;;21.92;;
76296;SDS011;65104;52.994;6.552;2022-11-15T07:09:31;36.55;;;17.75;;
76296;SDS011;65104;52.994;6.552;2022-11-15T07:11:57;42.00;;;19.88;;
76296;SDS011;65104;52.994;6.552;2022-11-15T07:14:23;43.53;;;19.85;;
76296;SDS011;65104;52.994;6.552;2022-11-15T07:16:49;38.90;;;20.00;;
76296;SDS011;65104;52.994;6.552;2022-11-15T07:19:15;41.65;;;20.50;;
76296;SDS011;65104;52.994;6.552;2022-11-15T07:21:41;39.22;;;18.90;;
76296;SDS011;65104;52.994;6.552;2022-11-15T07:24:07;41.05;;;20.05;;
76296;SDS011;65104;52.994;6.552;2022-11-15T07:26:33;47.47;;;20.55;;
76296;SDS011;65104;52.994;6.552;2022-11-15T07:28:59;44.28;;;18.77;;
76296;SDS011;65104;52.994;6.552;2022-11-15T07:31:25;52.95;;;25.48;;
76296;SDS011;65104;52.994;6.552;2022-11-15T07:33:51;43.38;;;21.52;;
76296;SDS011;65104;52.994;6.552;2022-11-15T07:36:17;43.05;;;21.45;;
76296;SDS011;65104;52.994;6.552;2022-11-15T07:38:43;38.72;;;19.35;;
76296;SDS011;65104;52.994;6.552;2022-11-15T07:41:09;39.45;;;17.33;;
76296;SDS011;65104;52.994;6.552;2022-11-15T07:43:35;37.30;;;18.00;;
76296;SDS011;65104;52.994;6.552;2022-11-15T07:46:05;40.10;;;18.60;;
76296;SDS011;65104;52.994;6.552;2022-11-15T07:48:35;37.85;;;18.77;;
76296;SDS011;65104;52.994;6.552;2022-11-15T07:51:02;34.55;;;17.15;;
76296;SDS011;65104;52.994;6.552;2022-11-15T07:53:28;32.78;;;17.20;;
76296;SDS011;65104;52.994;6.552;2022-11-15T07:55:54;33.92;;;17.15;;
76296;SDS011;65104;52.994;6.552;2022-11-15T07:58:20;36.75;;;17.35;;
76296;SDS011;65104;52.994;6.552;2022-11-15T08:00:46;34.97;;;16.25;;
76296;SDS011;65104;52.994;6.552;2022-11-15T08:03:13;31.27;;;16.65;;
76296;SDS011;65104;52.994;6.552;2022-11-15T08:05:40;36.28;;;17.98;;
76296;SDS011;65104;52.994;6.552;2022-11-15T08:08:08;31.20;;;15.50;;
76296;SDS011;65104;52.994;6.552;2022-11-15T08:10:35;32.13;;;15.98;;
76296;SDS011;65104;52.994;6.552;2022-11-15T08:13:07;32.60;;;17.27;;
76296;SDS011;65104;52.994;6.552;2022-11-15T08:15:35;32.45;;;15.68;;
76296;SDS011;65104;52.994;6.552;2022-11-15T08:18:03;29.90;;;15.55;;
76296;SDS011;65104;52.994;6.552;2022-11-15T08:20:34;27.80;;;15.35;;
76296;SDS011;65104;52.994;6.552;2022-11-15T08:23:01;28.50;;;15.50;;
76296;SDS011;65104;52.994;6.552;2022-11-15T08:25:29;29.75;;;15.05;;
76296;SDS011;65104;52.994;6.552;2022-11-15T08:27:57;26.95;;;15.38;;
76296;SDS011;65104;52.994;6.552;2022-11-15T08:30:24;26.17;;;14.98;;
76296;SDS011;65104;52.994;6.552;2022-11-15T08:32:51;28.63;;;15.88;;
76296;SDS011;65104;52.994;6.552;2022-11-15T08:35:17;30.23;;;15.43;;
76296;SDS011;65104;52.994;6.552;2022-11-15T08:37:44;22.88;;;13.13;;
76296;SDS011;65104;52.994;6.552;2022-11-15T08:40:10;27.35;;;13.95;;
76296;SDS011;65104;52.994;6.552;2022-11-15T08:42:36;24.88;;;14.95;;
76296;SDS011;65104;52.994;6.552;2022-11-15T08:45:02;26.63;;;16.13;;
76296;SDS011;65104;52.994;6.552;2022-11-15T08:47:29;27.00;;;15.52;;
76296;SDS011;65104;52.994;6.552;2022-11-15T08:49:55;27.40;;;16.13;;
76296;SDS011;65104;52.994;6.552;2022-11-15T08:52:21;21.70;;;13.15;;
76296;SDS011;65104;52.994;6.552;2022-11-15T08:54:48;21.45;;;12.63;;
76296;SDS011;65104;52.994;6.552;2022-11-15T08:57:14;25.35;;;14.68;;
76296;SDS011;65104;52.994;6.552;2022-11-15T08:59:40;22.90;;;12.85;;
76296;SDS011;65104;52.994;6.552;2022-11-15T09:02:10;25.52;;;13.63;;
76296;SDS011;65104;52.994;6.552;2022-11-15T09:04:38;24.65;;;13.48;;
76296;SDS011;65104;52.994;6.552;2022-11-15T09:07:05;26.90;;;14.20;;
76296;SDS011;65104;52.994;6.552;2022-11-15T09:09:32;22.70;;;12.95;;
76296;SDS011;65104;52.994;6.552;2022-11-15T09:11:58;25.73;;;12.95;;
76296;SDS011;65104;52.994;6.552;2022-11-15T09:14:24;20.85;;;13.27;;
76296;SDS011;65104;52.994;6.552;2022-11-15T09:16:50;24.65;;;14.35;;
76296;SDS011;65104;52.994;6.552;2022-11-15T09:19:16;25.45;;;14.18;;
76296;SDS011;65104;52.994;6.552;2022-11-15T09:21:42;30.15;;;14.73;;
76296;SDS011;65104;52.994;6.552;2022-11-15T09:24:08;24.30;;;13.45;;
76296;SDS011;65104;52.994;6.552;2022-11-15T09:26:34;24.92;;;13.88;;
76296;SDS011;65104;52.994;6.552;2022-11-15T09:29:01;21.73;;;13.07;;
76296;SDS011;65104;52.994;6.552;2022-11-15T09:31:27;21.77;;;13.27;;
76296;SDS011;65104;52.994;6.552;2022-11-15T09:33:55;21.90;;;13.30;;
76296;SDS011;65104;52.994;6.552;2022-11-15T09:36:20;22.25;;;13.23;;
76296;SDS011;65104;52.994;6.552;2022-11-15T09:38:46;23.95;;;13.68;;
76296;SDS011;65104;52.994;6.552;2022-11-15T09:48:57;21.38;;;13.23;;
76296;SDS011;65104;52.994;6.552;2022-11-15T09:51:45;24.70;;;12.65;;
76296;SDS011;65104;52.994;6.552;2022-11-15T09:54:35;21.30;;;12.30;;
76296;SDS011;65104;52.994;6.552;2022-11-15T10:00:38;18.38;;;13.20;;
76296;SDS011;65104;52.994;6.552;2022-11-15T10:03:15;20.88;;;11.98;;
76296;SDS011;65104;52.994;6.552;2022-11-15T10:05:53;21.17;;;12.55;;
76296;SDS011;65104;52.994;6.552;2022-11-15T10:08:40;19.17;;;11.52;;
76296;SDS011;65104;52.994;6.552;2022-11-15T10:11:32;21.13;;;13.10;;
76296;SDS011;65104;52.994;6.552;2022-11-15T10:14:01;16.65;;;10.38;;
76296;SDS011;65104;52.994;6.552;2022-11-15T10:16:57;21.63;;;12.00;;
76296;SDS011;65104;52.994;6.552;2022-11-15T10:25:27;16.63;;;10.80;;
76296;SDS011;65104;52.994;6.552;2022-11-15T10:27:56;18.05;;;10.40;;
76296;SDS011;65104;52.994;6.552;2022-11-15T10:30:30;18.45;;;12.05;;
76296;SDS011;65104;52.994;6.552;2022-11-15T10:33:18;20.30;;;11.18;;
76296;SDS011;65104;52.994;6.552;2022-11-15T10:41:32;19.27;;;11.93;;
76296;SDS011;65104;52.994;6.552;2022-11-15T10:44:11;20.13;;;11.90;;
76296;SDS011;65104;52.994;6.552;2022-11-15T10:54:38;16.80;;;10.90;;
76296;SDS011;65104;52.994;6.552;2022-11-15T10:57:20;15.82;;;9.35;;
76296;SDS011;65104;52.994;6.552;2022-11-15T10:59:50;13.48;;;9.25;;
76296;SDS011;65104;52.994;6.552;2022-11-15T11:07:59;15.00;;;9.15;;
76296;SDS011;65104;52.994;6.552;2022-11-15T11:10:31;11.50;;;8.18;;
76296;SDS011;65104;52.994;6.552;2022-11-15T11:16:17;9.48;;;6.70;;
76296;SDS011;65104;52.994;6.552;2022-11-15T11:19:13;8.45;;;5.47;;
76296;SDS011;65104;52.994;6.552;2022-11-15T11:30:52;6.78;;;4.22;;
76296;SDS011;65104;52.994;6.552;2022-11-15T11:36:53;7.60;;;4.35;;
76296;SDS011;65104;52.994;6.552;2022-11-15T11:48:08;4.97;;;3.05;;
76296;SDS011;65104;52.994;6.552;2022-11-15T11:50:39;4.18;;;2.10;;
76296;SDS011;65104;52.994;6.552;2022-11-15T11:53:14;3.45;;;2.08;;
76296;SDS011;65104;52.994;6.552;2022-11-15T11:55:50;4.90;;;2.22;;
76296;SDS011;65104;52.994;6.552;2022-11-15T11:58:38;5.03;;;2.63;;
76296;SDS011;65104;52.994;6.552;2022-11-15T12:01:30;3.25;;;2.13;;
76296;SDS011;65104;52.994;6.552;2022-11-15T12:04:04;5.70;;;3.00;;
76296;SDS011;65104;52.994;6.552;2022-11-15T12:07:00;3.30;;;2.33;;
76296;SDS011;65104;52.994;6.552;2022-11-15T12:09:34;4.47;;;1.92;;
76296;SDS011;65104;52.994;6.552;2022-11-15T12:17:35;3.90;;;2.00;;
76296;SDS011;65104;52.994;6.552;2022-11-15T12:20:06;4.85;;;2.53;;
76296;SDS011;65104;52.994;6.552;2022-11-15T12:31:27;3.45;;;2.03;;
76296;SDS011;65104;52.994;6.552;2022-11-15T12:33:55;4.97;;;2.58;;
76296;SDS011;65104;52.994;6.552;2022-11-15T12:39:07;3.45;;;2.78;;
76296;SDS011;65104;52.994;6.552;2022-11-15T12:41:36;4.30;;;3.35;;
76296;SDS011;65104;52.994;6.552;2022-11-15T12:44:03;6.10;;;3.00;;
76296;SDS011;65104;52.994;6.552;2022-11-15T12:49:09;4.20;;;2.40;;
76296;SDS011;65104;52.994;6.552;2022-11-15T12:52:04;6.32;;;3.00;;
76296;SDS011;65104;52.994;6.552;2022-11-15T12:57:54;3.40;;;2.47;;
76296;SDS011;65104;52.994;6.552;2022-11-15T13:02:46;3.40;;;2.40;;
76296;SDS011;65104;52.994;6.552;2022-11-15T13:13:03;3.20;;;2.00;;
76296;SDS011;65104;52.994;6.552;2022-11-15T13:15:52;2.97;;;1.90;;
76296;SDS011;65104;52.994;6.552;2022-11-15T13:18:29;4.07;;;2.58;;
76296;SDS011;65104;52.994;6.552;2022-11-15T13:21:00;3.70;;;2.05;;
76296;SDS011;65104;52.994;6.552;2022-11-15T13:23:51;5.03;;;2.35;;
76296;SDS011;65104;52.994;6.552;2022-11-15T13:26:18;3.35;;;2.10;;
76296;SDS011;65104;52.994;6.552;2022-11-15T13:28:47;3.53;;;2.15;;
76296;SDS011;65104;52.994;6.552;2022-11-15T13:31:30;4.13;;;2.25;;
76296;SDS011;65104;52.994;6.552;2022-11-15T13:37:01;3.53;;;2.30;;
76296;SDS011;65104;52.994;6.552;2022-11-15T13:39:30;2.30;;;1.85;;
76296;SDS011;65104;52.994;6.552;2022-11-15T13:41:58;2.90;;;1.73;;
76296;SDS011;65104;52.994;6.552;2022-11-15T13:44:29;2.03;;;1.40;;
76296;SDS011;65104;52.994;6.552;2022-11-15T13:47:02;2.38;;;1.70;;
76296;SDS011;65104;52.994;6.552;2022-11-15T13:49:31;2.08;;;1.20;;
76296;SDS011;65104;52.994;6.552;2022-11-15T13:51:58;1.58;;;1.40;;
76296;SDS011;65104;52.994;6.552;2022-11-15T13:57:21;1.98;;;1.65;;
76296;SDS011;65104;52.994;6.552;2022-11-15T14:00:02;2.42;;;1.30;;
76296;SDS011;65104;52.994;6.552;2022-11-15T14:02:32;1.77;;;1.00;;
76296;SDS011;65104;52.994;6.552;2022-11-15T14:05:16;1.30;;;1.20;;
76296;SDS011;65104;52.994;6.552;2022-11-15T14:07:57;2.38;;;1.38;;
76296;SDS011;65104;52.994;6.552;2022-11-15T14:10:39;2.95;;;1.70;;
76296;SDS011;65104;52.994;6.552;2022-11-15T14:13:10;1.55;;;1.20;;
76296;SDS011;65104;52.994;6.552;2022-11-15T14:15:53;4.32;;;1.40;;
76296;SDS011;65104;52.994;6.552;2022-11-15T14:21:15;5.95;;;2.70;;
76296;SDS011;65104;52.994;6.552;2022-11-15T14:23:43;2.15;;;1.65;;
76296;SDS011;65104;52.994;6.552;2022-11-15T14:28:56;2.60;;;1.05;;
76296;SDS011;65104;52.994;6.552;2022-11-15T14:31:22;4.53;;;3.08;;
76296;SDS011;65104;52.994;6.552;2022-11-15T14:33:48;2.63;;;0.70;;
76296;SDS011;65104;52.994;6.552;2022-11-15T14:36:15;1.13;;;0.98;;
76296;SDS011;65104;52.994;6.552;2022-11-15T14:38:44;1.45;;;1.10;;
76296;SDS011;65104;52.994;6.552;2022-11-15T14:41:21;3.17;;;2.15;;
76296;SDS011;65104;52.994;6.552;2022-11-15T14:43:50;1.40;;;1.30;;
76296;SDS011;65104;52.994;6.552;2022-11-15T14:48:42;4.45;;;1.45;;
76296;SDS011;65104;52.994;6.552;2022-11-15T14:51:09;3.58;;;1.95;;
76296;SDS011;65104;52.994;6.552;2022-11-15T14:53:38;2.72;;;1.83;;
76296;SDS011;65104;52.994;6.552;2022-11-15T14:56:05;2.53;;;2.00;;
76296;SDS011;65104;52.994;6.552;2022-11-15T14:58:31;3.05;;;1.45;;
76296;SDS011;65104;52.994;6.552;2022-11-15T15:42:00;6.95;;;4.03;;
76296;SDS011;65104;52.994;6.552;2022-11-15T15:44:28;5.45;;;3.95;;
76296;SDS011;65104;52.994;6.552;2022-11-15T15:46:54;5.05;;;3.95;;
76296;SDS011;65104;52.994;6.552;2022-11-15T15:49:19;5.85;;;4.72;;
76296;SDS011;65104;52.994;6.552;2022-11-15T15:51:45;4.80;;;4.30;;
76296;SDS011;65104;52.994;6.552;2022-11-15T15:54:11;5.13;;;4.15;;
76296;SDS011;65104;52.994;6.552;2022-11-15T15:56:36;6.90;;;4.15;;
76296;SDS011;65104;52.994;6.552;2022-11-15T15:59:01;5.53;;;5.03;;
76296;SDS011;65104;52.994;6.552;2022-11-15T16:01:27;6.00;;;4.60;;
76296;SDS011;65104;52.994;6.552;2022-11-15T16:03:56;6.75;;;4.50;;
76296;SDS011;65104;52.994;6.552;2022-11-15T16:06:40;8.25;;;4.63;;
76296;SDS011;65104;52.994;6.552;2022-11-15T16:09:16;5.72;;;5.13;;
76296;SDS011;65104;52.994;6.552;2022-11-15T16:11:43;6.32;;;4.57;;
76296;SDS011;65104;52.994;6.552;2022-11-15T16:14:09;5.78;;;4.63;;
76296;SDS011;65104;52.994;6.552;2022-11-15T16:16:35;5.68;;;4.45;;
76296;SDS011;65104;52.994;6.552;2022-11-15T16:19:01;5.28;;;3.90;;
76296;SDS011;65104;52.994;6.552;2022-11-15T16:21:27;5.55;;;4.68;;
76296;SDS011;65104;52.994;6.552;2022-11-15T16:23:53;6.55;;;4.22;;
76296;SDS011;65104;52.994;6.552;2022-11-15T16:26:25;6.07;;;4.65;;
76296;SDS011;65104;52.994;6.552;2022-11-15T16:31:56;5.13;;;3.75;;
76296;SDS011;65104;52.994;6.552;2022-11-15T16:34:21;4.93;;;3.08;;
76296;SDS011;65104;52.994;6.552;2022-11-15T16:36:47;4.93;;;4.15;;
76296;SDS011;65104;52.994;6.552;2022-11-15T16:39:20;4.68;;;3.50;;
76296;SDS011;65104;52.994;6.552;2022-11-15T16:41:45;4.05;;;3.13;;
76296;SDS011;65104;52.994;6.552;2022-11-15T16:44:12;4.45;;;3.38;;
76296;SDS011;65104;52.994;6.552;2022-11-15T16:46:38;4.82;;;3.22;;
76296;SDS011;65104;52.994;6.552;2022-11-15T16:49:11;3.17;;;2.67;;
76296;SDS011;65104;52.994;6.552;2022-11-15T16:51:39;2.95;;;2.60;;
76296;SDS011;65104;52.994;6.552;2022-11-15T16:54:05;3.60;;;2.92;;
76296;SDS011;65104;52.994;6.552;2022-11-15T16:56:33;3.72;;;2.95;;
76296;SDS011;65104;52.994;6.552;2022-11-15T16:58:59;5.03;;;2.65;;
76296;SDS011;65104;52.994;6.552;2022-11-15T17:01:26;2.75;;;2.20;;
76296;SDS011;65104;52.994;6.552;2022-11-15T17:06:19;3.42;;;2.92;;
76296;SDS011;65104;52.994;6.552;2022-11-15T17:08:46;3.05;;;2.20;;
76296;SDS011;65104;52.994;6.552;2022-11-15T17:11:13;3.47;;;2.45;;
76296;SDS011;65104;52.994;6.552;2022-11-15T17:13:40;3.58;;;2.10;;
76296;SDS011;65104;52.994;6.552;2022-11-15T17:16:10;3.65;;;2.38;;
76296;SDS011;65104;52.994;6.552;2022-11-15T17:21:07;2.92;;;2.03;;
76296;SDS011;65104;52.994;6.552;2022-11-15T17:23:36;1.65;;;1.55;;
76296;SDS011;65104;52.994;6.552;2022-11-15T17:26:03;3.35;;;1.80;;
76296;SDS011;65104;52.994;6.552;2022-11-15T17:28:33;2.30;;;1.88;;
76296;SDS011;65104;52.994;6.552;2022-11-15T17:30:59;2.92;;;2.60;;
76296;SDS011;65104;52.994;6.552;2022-11-15T17:33:25;4.25;;;1.70;;
76296;SDS011;65104;52.994;6.552;2022-11-15T17:35:57;3.38;;;1.80;;
76296;SDS011;65104;52.994;6.552;2022-11-15T17:38:25;2.60;;;1.75;;
76296;SDS011;65104;52.994;6.552;2022-11-15T17:43:31;3.10;;;1.73;;
76296;SDS011;65104;52.994;6.552;2022-11-15T17:45:58;3.00;;;1.90;;
76296;SDS011;65104;52.994;6.552;2022-11-15T17:48:28;2.53;;;2.08;;
76296;SDS011;65104;52.994;6.552;2022-11-15T17:50:58;2.95;;;1.83;;
76296;SDS011;65104;52.994;6.552;2022-11-15T17:53:25;2.40;;;1.55;;
76296;SDS011;65104;52.994;6.552;2022-11-15T17:55:51;3.50;;;2.10;;
76296;SDS011;65104;52.994;6.552;2022-11-15T17:58:18;2.00;;;1.35;;
76296;SDS011;65104;52.994;6.552;2022-11-15T18:00:47;2.20;;;1.55;;
76296;SDS011;65104;52.994;6.552;2022-11-15T18:03:13;2.30;;;1.40;;
76296;SDS011;65104;52.994;6.552;2022-11-15T18:05:39;2.35;;;1.38;;